Terminal Aerodrome Forecast
Issued by NWS Amarillo, TX

Home | Current Version | Previous Version | Text Only | Print | Product List | Glossary On
Versions: 1 2 3 4 5 6 7 8 9 10 11 12 13 14 15 16
000
FTUS44 KAMA 290522
TAFDHT
TAF
KDHT 290522Z 2906/3006 07022G32KT 6SM -TSRA BR OVC008CB
      TEMPO 2906/2910 VRB45KT 1SM TSRA BR OVC006CB
     FM292100 30018KT P6SM OVC015
     FM300000 33022KT P6SM OVC100=

USA.gov is the U.S. government's official web portal to all federal, state and local government web resources and services.